Time;durP1;ratioP1;P1;durP2;ratioP2;P2;SDS_P1;SDS_P2;PMS_P1;PMS_P2;Temp;Humidity;BMP_temperature;BMP_pressure;BME280_temperature;BME280_humidity;BME280_pressure;Samples;Min_cycle;Max_cycle;Signal;HPM_P1;HPM_P2
2022/10/14 00:01:01;;;;;;;4.72;4.10;;;12.60;99.90;;;;;;5030630;28;20206;-69
2022/10/14 00:03:28;;;;;;;4.20;3.33;;;12.60;99.90;;;;;;5030063;28;20202;-69
2022/10/14 00:05:55;;;;;;;4.78;3.97;;;12.60;99.90;;;;;;5030707;28;20264;-69
2022/10/14 00:08:22;;;;;;;4.22;3.83;;;12.60;99.90;;;;;;5030575;28;20210;-69
2022/10/14 00:10:50;;;;;;;4.50;4.10;;;12.60;99.90;;;;;;5030630;28;20206;-68
2022/10/14 00:13:17;;;;;;;4.03;3.55;;;12.50;99.90;;;;;;5029880;28;20215;-69
2022/10/14 00:15:43;;;;;;;4.38;3.65;;;12.60;99.90;;;;;;5030503;28;20230;-69
2022/10/14 00:18:10;;;;;;;4.75;4.25;;;12.60;99.90;;;;;;5030383;28;20208;-69
2022/10/14 00:20:37;;;;;;;3.80;3.40;;;12.60;99.90;;;;;;5030847;28;20206;-68
2022/10/14 00:23:04;;;;;;;4.07;3.75;;;12.60;99.90;;;;;;5029868;28;20276;-69
2022/10/14 00:25:31;;;;;;;3.80;3.50;;;12.60;99.90;;;;;;5030642;28;20219;-69
2022/10/14 00:28:02;;;;;;;4.20;3.80;;;12.60;99.90;;;;;;5030497;28;20225;-68
2022/10/14 00:30:29;;;;;;;3.88;3.35;;;12.60;99.90;;;;;;5030726;28;20821;-68
2022/10/14 00:32:55;;;;;;;4.15;3.60;;;12.60;99.90;;;;;;5029895;28;20214;-69
2022/10/14 00:35:22;;;;;;;7.53;3.70;;;12.50;99.90;;;;;;5030793;28;20227;-69
2022/10/14 00:37:49;;;;;;;3.37;3.10;;;12.50;99.90;;;;;;5031021;28;20460;-69
2022/10/14 00:40:16;;;;;;;4.85;3.75;;;12.50;99.90;;;;;;5030589;28;20846;-68
2022/10/14 00:42:42;;;;;;;4.30;3.90;;;12.50;99.90;;;;;;5029831;28;20209;-68
2022/10/14 00:45:15;;;;;;;6.37;3.97;;;12.50;99.90;;;;;;5030220;28;20214;-69
2022/10/14 00:47:43;;;;;;;4.43;4.03;;;12.50;99.90;;;;;;5030408;28;20909;-69
2022/10/14 00:50:14;;;;;;;5.37;3.90;;;12.50;99.90;;;;;;5030280;28;20202;-69
2022/10/14 00:52:41;;;;;;;4.30;3.60;;;12.50;99.90;;;;;;5029752;28;20461;-69
2022/10/14 00:55:13;;;;;;;4.40;4.00;;;12.50;99.90;;;;;;5030042;28;20226;-69
2022/10/14 00:57:39;;;;;;;4.70;3.88;;;12.60;99.90;;;;;;5030314;28;20469;-69
2022/10/14 01:00:10;;;;;;;4.80;3.40;;;12.50;99.90;;;;;;5030097;28;20297;-68
2022/10/14 01:02:38;;;;;;;8.93;4.50;;;12.50;99.90;;;;;;5029672;28;20997;-68
2022/10/14 01:05:08;;;;;;;4.10;3.70;;;12.50;99.90;;;;;;5029904;28;20481;-69
2022/10/14 01:07:43;;;;;;;3.55;3.25;;;12.60;99.90;;;;;;5034081;28;20202;-69
2022/10/14 01:10:16;;;;;;;4.90;3.90;;;12.50;99.90;;;;;;5033686;28;20229;-69
2022/10/14 01:12:55;;;;;;;5.68;3.53;;;12.50;99.90;;;;;;5033371;28;20839;-69
2022/10/14 01:15:30;;;;;;;7.20;4.30;;;12.50;99.90;;;;;;5033600;28;20265;-69
2022/10/14 01:18:10;;;;;;;5.43;4.82;;;12.50;99.90;;;;;;5033687;28;20678;-69
2022/10/14 01:20:57;;;;;;;4.40;4.00;;;12.50;99.90;;;;;;5033648;28;20557;-69
2022/10/14 01:23:54;;;;;;;4.95;4.20;;;12.50;99.90;;;;;;5033140;28;20230;-69
2022/10/14 01:26:36;;;;;;;5.22;4.72;;;12.50;99.90;;;;;;5033360;28;20737;-69
2022/10/14 01:29:14;;;;;;;7.03;4.32;;;12.50;99.90;;;;;;5033388;28;20212;-69
2022/10/14 01:31:46;;;;;;;4.22;3.83;;;12.50;99.90;;;;;;5033000;28;20594;-68
2022/10/14 01:34:19;;;;;;;6.07;4.35;;;12.50;99.90;;;;;;5033185;28;20226;-69
2022/10/14 01:36:50;;;;;;;5.70;3.92;;;12.50;99.90;;;;;;5134273;22;20217;-94
2022/10/14 01:39:22;;;;;;;5.35;4.85;;;12.50;99.90;;;;;;5079789;28;20226;-94
2022/10/14 01:41:58;;;;;;;5.05;4.55;;;12.50;99.90;;;;;;5059885;28;20186;-94
2022/10/14 01:44:26;;;;;;;5.30;3.70;;;12.60;99.90;;;;;;5060076;28;20178;-93
2022/10/14 01:46:56;;;;;;;6.53;4.30;;;12.60;99.90;;;;;;5060151;28;20444;-93
2022/10/14 01:49:29;;;;;;;3.97;3.67;;;12.60;99.90;;;;;;5059844;28;20445;-92
2022/10/14 01:52:02;;;;;;;7.18;4.25;;;12.60;99.90;;;;;;5059535;28;20452;-94
2022/10/14 01:54:33;;;;;;;4.00;3.60;;;12.60;99.90;;;;;;5060197;28;20187;-93
2022/10/14 01:57:11;;;;;;;4.70;3.87;;;12.60;99.90;;;;;;5059621;28;20467;-94
2022/10/14 01:59:40;;;;;;;4.83;4.00;;;12.70;99.90;;;;;;5059862;28;20437;-92
2022/10/14 02:02:10;;;;;;;6.00;4.47;;;12.60;99.90;;;;;;5059808;28;20460;-92
2022/10/14 02:04:38;;;;;;;5.35;4.40;;;12.60;99.90;;;;;;5059310;28;20481;-92
2022/10/14 02:07:16;;;;;;;5.90;5.30;;;12.70;99.90;;;;;;5059664;28;20258;-94
2022/10/14 02:10:02;;;;;;;6.03;4.30;;;12.60;99.90;;;;;;5059443;28;20483;-92
2022/10/14 02:12:38;;;;;;;4.55;3.60;;;12.60;99.90;;;;;;5059492;28;20186;-94
2022/10/14 02:15:18;;;;;;;5.17;3.90;;;12.70;99.90;;;;;;5059624;28;20182;-95
2022/10/14 02:17:55;;;;;;;5.40;4.40;;;12.70;99.90;;;;;;5059377;28;20436;-96
2022/10/14 02:20:36;;;;;;;5.45;4.00;;;12.70;99.90;;;;;;5059763;28;20206;-95
2022/10/14 02:23:13;;;;;;;4.97;3.67;;;12.70;99.90;;;;;;5059558;28;20178;-93
2022/10/14 02:25:42;;;;;;;5.88;4.03;;;12.60;99.90;;;;;;5070946;22;20437;-70
2022/10/14 02:28:12;;;;;;;4.40;3.70;;;12.60;99.90;;;;;;5032060;28;20202;-70
2022/10/14 02:30:42;;;;;;;4.22;3.63;;;12.70;99.90;;;;;;5032403;28;20491;-70
2022/10/14 02:33:11;;;;;;;4.40;3.95;;;12.60;99.90;;;;;;5031738;28;20210;-70
2022/10/14 02:35:40;;;;;;;5.10;4.23;;;12.60;99.90;;;;;;5032415;28;20222;-70
2022/10/14 02:38:09;;;;;;;5.20;4.40;;;12.60;99.90;;;;;;5032200;28;20461;-70
2022/10/14 02:40:39;;;;;;;5.23;4.13;;;12.60;99.90;;;;;;5032262;28;20843;-70
2022/10/14 02:43:08;;;;;;;6.30;4.67;;;12.60;99.90;;;;;;5031478;28;20488;-70
2022/10/14 02:45:35;;;;;;;5.53;4.30;;;12.60;99.90;;;;;;5032253;28;20476;-70
2022/10/14 02:48:02;;;;;;;4.15;3.75;;;12.60;99.90;;;;;;5031939;28;20465;-69
2022/10/14 02:50:30;;;;;;;4.40;4.00;;;12.60;99.90;;;;;;5032200;28;20203;-69
2022/10/14 02:52:57;;;;;;;4.10;3.73;;;12.60;99.90;;;;;;5031353;28;20845;-70
2022/10/14 02:55:24;;;;;;;8.83;4.40;;;12.60;99.90;;;;;;5031760;28;20480;-70
2022/10/14 02:57:51;;;;;;;4.38;3.97;;;12.60;99.90;;;;;;5031786;28;20460;-70
2022/10/14 03:00:19;;;;;;;4.47;4.05;;;12.60;99.90;;;;;;5031739;28;20206;-70
2022/10/14 03:02:46;;;;;;;4.30;3.90;;;12.60;99.90;;;;;;5031295;28;20692;-70
2022/10/14 03:05:12;;;;;;;4.47;3.70;;;12.60;99.90;;;;;;5031636;28;20484;-69
2022/10/14 03:07:41;;;;;;;5.50;4.50;;;12.60;99.90;;;;;;5031773;28;20964;-69
2022/10/14 03:10:08;;;;;;;4.65;4.25;;;12.50;99.90;;;;;;5031475;28;20847;-69
2022/10/14 03:12:35;;;;;;;6.10;3.85;;;12.50;99.90;;;;;;5031685;28;20213;-70
2022/10/14 03:15:02;;;;;;;4.60;4.20;;;12.50;99.90;;;;;;5032077;28;20226;-69
2022/10/14 03:17:29;;;;;;;4.20;3.80;;;12.50;99.90;;;;;;5031707;28;20596;-70
2022/10/14 03:19:57;;;;;;;5.88;4.22;;;12.50;99.90;;;;;;5031497;28;20469;-70
2022/10/14 03:22:24;;;;;;;5.50;4.30;;;12.50;99.90;;;;;;5030902;28;20206;-70
2022/10/14 03:24:52;;;;;;;4.10;3.70;;;12.50;99.90;;;;;;5031266;28;20226;-70
2022/10/14 03:27:18;;;;;;;4.43;4.03;;;12.50;99.90;;;;;;5046206;28;20210;-70
2022/10/14 03:29:45;;;;;;;6.78;3.67;;;12.50;99.90;;;;;;5050304;28;20209;-69
2022/10/14 03:32:12;;;;;;;5.87;4.30;;;12.40;99.90;;;;;;5050365;28;20209;-70
2022/10/14 03:34:38;;;;;;;5.57;4.00;;;12.40;99.90;;;;;;5050680;28;20854;-70
2022/10/14 03:37:06;;;;;;;4.20;3.50;;;12.40;99.90;;;;;;5047877;28;20507;-69
2022/10/14 03:39:33;;;;;;;6.18;5.20;;;12.50;99.90;;;;;;5048637;28;20314;-70
2022/10/14 03:42:01;;;;;;;6.05;4.00;;;12.40;99.90;;;;;;5048113;28;20202;-70
2022/10/14 03:44:28;;;;;;;4.93;4.25;;;12.40;99.90;;;;;;5048379;28;20222;-70
2022/10/14 03:46:54;;;;;;;5.90;4.25;;;12.50;99.90;;;;;;5048320;28;20201;-69
2022/10/14 03:49:21;;;;;;;6.90;4.77;;;12.40;99.90;;;;;;5048816;28;20212;-70
2022/10/14 03:51:48;;;;;;;8.27;4.57;;;12.40;99.90;;;;;;5049141;28;20558;-69
2022/10/14 03:54:15;;;;;;;8.57;4.45;;;12.50;99.90;;;;;;5050652;28;20571;-70
2022/10/14 03:56:42;;;;;;;4.90;4.03;;;12.40;99.90;;;;;;5050382;28;20214;-70
2022/10/14 03:59:10;;;;;;;6.70;5.27;;;12.40;99.90;;;;;;5047846;28;20456;-69
2022/10/14 04:01:37;;;;;;;6.25;5.40;;;12.40;99.90;;;;;;5049724;28;20955;-69
2022/10/14 04:04:03;;;;;;;5.37;4.40;;;12.40;99.90;;;;;;5049528;28;20221;-69
2022/10/14 04:06:31;;;;;;;8.80;5.13;;;12.30;99.90;;;;;;5050096;28;20456;-70
2022/10/14 04:08:57;;;;;;;6.68;5.25;;;12.20;99.90;;;;;;5049949;28;20202;-70
2022/10/14 04:11:24;;;;;;;12.47;5.90;;;12.30;99.90;;;;;;5049548;28;20241;-69
2022/10/14 04:13:51;;;;;;;6.20;5.47;;;12.20;99.90;;;;;;5049997;28;20459;-70
2022/10/14 04:16:19;;;;;;;8.00;5.30;;;12.20;99.90;;;;;;5049690;28;20225;-71
2022/10/14 04:18:46;;;;;;;5.70;4.80;;;12.20;99.90;;;;;;5050189;28;20616;-71
2022/10/14 04:21:12;;;;;;;5.63;5.13;;;12.20;99.90;;;;;;5049900;28;20745;-70
2022/10/14 04:23:39;;;;;;;5.47;4.80;;;12.20;99.90;;;;;;5050414;28;20442;-70
2022/10/14 04:26:08;;;;;;;8.80;6.07;;;12.30;99.90;;;;;;5049404;28;20452;-70
2022/10/14 04:31:03;;;;;;;7.37;4.67;;;12.30;99.90;;;;;;5027288;28;20476;-67
2022/10/14 04:33:31;;;;;;;5.10;4.60;;;12.40;99.90;;;;;;5027385;28;20479;-67
2022/10/14 04:35:58;;;;;;;5.83;5.20;;;12.40;99.90;;;;;;5027509;28;20485;-67
2022/10/14 04:38:25;;;;;;;6.27;4.60;;;12.40;99.90;;;;;;5028941;28;20473;-67
2022/10/14 04:40:52;;;;;;;7.88;5.18;;;12.40;99.90;;;;;;5030465;28;20988;-67
2022/10/14 04:43:19;;;;;;;7.35;5.15;;;12.40;99.90;;;;;;5032650;28;20229;-67
2022/10/14 04:45:46;;;;;;;5.70;4.72;;;12.50;99.90;;;;;;5033665;28;20225;-67
2022/10/14 04:48:13;;;;;;;7.55;5.20;;;12.40;99.90;;;;;;5034309;28;20230;-67
2022/10/14 04:50:42;;;;;;;7.38;4.57;;;12.50;99.90;;;;;;5034014;28;20674;-67
2022/10/14 04:53:08;;;;;;;4.90;4.20;;;12.50;99.90;;;;;;5033744;28;20670;-66
2022/10/14 04:55:35;;;;;;;6.68;5.05;;;12.50;99.90;;;;;;5034127;28;20523;-67
2022/10/14 04:58:02;;;;;;;6.43;4.80;;;12.50;99.90;;;;;;5034386;28;20241;-67
2022/10/14 05:00:29;;;;;;;5.32;4.63;;;12.50;99.90;;;;;;5033948;28;20580;-67
2022/10/14 05:02:56;;;;;;;6.43;5.00;;;12.50;99.90;;;;;;5033749;28;20206;-67
2022/10/14 05:05:23;;;;;;;4.90;4.10;;;12.50;99.90;;;;;;5034169;28;20488;-67
2022/10/14 05:07:51;;;;;;;6.00;5.37;;;12.50;99.90;;;;;;5034294;28;20464;-67
2022/10/14 05:10:17;;;;;;;5.00;4.50;;;12.50;99.90;;;;;;5034018;28;20531;-67
2022/10/14 05:12:44;;;;;;;6.32;5.03;;;12.50;99.90;;;;;;5033510;28;20207;-67
2022/10/14 05:15:11;;;;;;;6.07;5.00;;;12.50;99.90;;;;;;5033812;28;20222;-66
2022/10/14 05:17:38;;;;;;;5.30;4.60;;;12.40;99.90;;;;;;5033630;28;20539;-66
2022/10/14 05:20:06;;;;;;;7.20;4.67;;;12.40;99.90;;;;;;5033749;28;20975;-67
2022/10/14 05:22:33;;;;;;;5.93;4.57;;;12.40;99.90;;;;;;5032897;28;20457;-67
2022/10/14 05:25:02;;;;;;;7.97;4.77;;;12.40;99.90;;;;;;5033751;28;20488;-67
2022/10/14 05:27:28;;;;;;;5.47;3.92;;;12.40;99.90;;;;;;5033450;28;20460;-67
2022/10/14 05:29:55;;;;;;;9.13;5.53;;;12.50;99.90;;;;;;5033503;28;20218;-67
2022/10/14 05:32:22;;;;;;;6.37;5.10;;;12.40;99.90;;;;;;5032654;28;20203;-67
2022/10/14 05:34:49;;;;;;;7.18;5.47;;;12.40;99.90;;;;;;5033398;28;20477;-67
2022/10/14 05:37:15;;;;;;;4.83;4.33;;;12.40;99.90;;;;;;5033232;28;20230;-66
2022/10/14 05:39:42;;;;;;;6.97;4.23;;;12.40;99.90;;;;;;5033294;28;20465;-67
2022/10/14 05:42:10;;;;;;;6.20;4.70;;;12.40;99.90;;;;;;5032803;28;20457;-67
2022/10/14 05:44:37;;;;;;;10.95;4.78;;;12.40;99.90;;;;;;5033213;28;20229;-67
2022/10/14 05:47:03;;;;;;;7.47;5.30;;;12.40;99.90;;;;;;5033622;28;20202;-67
2022/10/14 05:49:30;;;;;;;7.13;5.05;;;12.40;99.90;;;;;;5032783;28;20469;-67
2022/10/14 05:51:57;;;;;;;6.68;5.60;;;12.40;99.90;;;;;;5031415;28;20202;-69
2022/10/14 05:54:23;;;;;;;6.60;5.47;;;12.40;99.90;;;;;;5032776;28;20229;-67
2022/10/14 05:56:50;;;;;;;8.55;5.65;;;12.30;99.90;;;;;;5033052;28;20499;-67
2022/10/14 05:59:18;;;;;;;9.50;5.17;;;12.30;99.90;;;;;;5032304;28;20205;-67
2022/10/14 06:01:45;;;;;;;7.00;5.07;;;12.20;99.90;;;;;;5031876;28;20873;-67
2022/10/14 06:04:17;;;;;;;7.30;5.80;;;12.20;99.90;;;;;;5032806;28;20321;-67
2022/10/14 06:06:43;;;;;;;14.57;5.80;;;12.20;99.90;;;;;;5033055;28;20662;-67
2022/10/14 06:09:10;;;;;;;6.70;5.38;;;12.30;99.90;;;;;;5032643;28;20213;-69
2022/10/14 06:11:37;;;;;;;11.25;6.15;;;12.30;99.90;;;;;;5032435;28;20666;-67
2022/10/14 06:14:04;;;;;;;7.70;5.47;;;12.40;99.90;;;;;;5032705;28;20229;-67
2022/10/14 06:16:32;;;;;;;5.38;4.65;;;12.40;99.90;;;;;;5032673;28;20687;-67
2022/10/14 06:18:58;;;;;;;6.47;4.72;;;12.40;99.90;;;;;;5032532;28;20213;-67
2022/10/14 06:21:26;;;;;;;11.00;5.55;;;12.40;99.90;;;;;;5032101;28;20210;-67
2022/10/14 06:23:52;;;;;;;8.05;5.70;;;12.50;99.90;;;;;;5032639;28;20206;-67
2022/10/14 06:26:19;;;;;;;6.50;5.20;;;12.50;99.90;;;;;;5032596;28;20227;-67
2022/10/14 06:28:46;;;;;;;9.30;4.80;;;12.50;99.90;;;;;;5032335;28;20202;-67
2022/10/14 06:31:13;;;;;;;8.00;5.17;;;12.50;99.90;;;;;;5031881;28;20474;-67
2022/10/14 06:33:42;;;;;;;5.43;4.72;;;12.50;99.90;;;;;;5032311;28;20475;-67
2022/10/14 06:36:10;;;;;;;7.20;5.13;;;12.50;99.90;;;;;;5032451;28;20301;-67
2022/10/14 06:38:37;;;;;;;9.50;4.55;;;12.60;99.90;;;;;;5032236;28;20763;-67
2022/10/14 06:41:04;;;;;;;5.97;4.63;;;12.60;99.90;;;;;;5032332;28;20206;-66
2022/10/14 06:43:30;;;;;;;6.32;4.88;;;12.60;99.90;;;;;;5031766;28;20674;-67
2022/10/14 06:45:58;;;;;;;14.33;5.40;;;12.70;99.90;;;;;;5031970;28;20230;-67
2022/10/14 06:48:25;;;;;;;5.03;4.40;;;12.70;99.90;;;;;;5032378;28;20487;-67
2022/10/14 06:50:53;;;;;;;5.25;4.47;;;12.70;99.90;;;;;;5032268;28;20203;-68
2022/10/14 06:53:20;;;;;;;5.47;4.80;;;12.70;99.90;;;;;;5031553;28;20207;-67
2022/10/14 06:55:47;;;;;;;6.27;5.63;;;12.70;99.90;;;;;;5031957;28;20491;-67
2022/10/14 06:58:13;;;;;;;6.20;5.53;;;12.70;99.90;;;;;;5028146;28;20503;-66
2022/10/14 07:00:40;;;;;;;7.40;5.53;;;12.70;99.90;;;;;;5029272;28;20472;-66
2022/10/14 07:03:07;;;;;;;7.30;5.00;;;12.70;99.90;;;;;;5027881;28;20476;-66
2022/10/14 07:05:35;;;;;;;7.37;4.83;;;12.60;99.90;;;;;;5027976;28;20233;-67
2022/10/14 07:08:04;;;;;;;5.80;5.30;;;12.70;99.90;;;;;;5030350;28;20457;-67
2022/10/14 07:10:31;;;;;;;5.57;4.35;;;12.70;99.90;;;;;;5028301;28;20460;-67
2022/10/14 07:12:58;;;;;;;7.90;5.38;;;12.70;99.90;;;;;;5028616;28;20288;-67
2022/10/14 07:15:25;;;;;;;6.63;5.10;;;12.60;99.90;;;;;;5030448;28;20246;-67
2022/10/14 07:17:52;;;;;;;7.00;4.70;;;12.60;99.90;;;;;;5029931;28;20607;-66
2022/10/14 07:20:19;;;;;;;6.23;4.17;;;12.60;99.90;;;;;;5030872;28;20457;-67
2022/10/14 07:22:45;;;;;;;5.50;4.90;;;12.60;99.90;;;;;;5030317;28;20465;-67
2022/10/14 07:25:13;;;;;;;5.53;4.80;;;12.60;99.90;;;;;;5031310;28;20477;-67
2022/10/14 07:27:40;;;;;;;6.43;5.82;;;12.60;99.90;;;;;;5028832;28;21632;-67
2022/10/14 07:30:11;;;;;;;7.07;4.90;;;12.70;99.90;;;;;;5029634;28;20218;-67
2022/10/14 07:32:39;;;;;;;5.53;5.07;;;12.80;99.90;;;;;;5029366;28;20488;-67
2022/10/14 07:35:06;;;;;;;5.70;5.10;;;12.90;99.90;;;;;;5029658;28;20481;-67
2022/10/14 07:37:33;;;;;;;5.53;4.60;;;12.90;99.90;;;;;;5029730;28;20527;-67
2022/10/14 07:40:00;;;;;;;4.60;4.20;;;13.00;99.90;;;;;;5029886;28;20467;-68
2022/10/14 07:42:28;;;;;;;7.63;4.53;;;13.00;99.90;;;;;;5029257;28;20879;-66
2022/10/14 07:44:56;;;;;;;5.33;4.60;;;13.00;99.90;;;;;;5029567;28;20489;-69
2022/10/14 07:47:23;;;;;;;5.90;4.17;;;13.10;99.90;;;;;;5030059;28;20487;-68
2022/10/14 07:49:50;;;;;;;5.63;4.43;;;13.10;99.90;;;;;;5029233;28;20828;-67
2022/10/14 07:52:18;;;;;;;6.50;4.30;;;13.10;99.90;;;;;;5029512;28;21126;-69
2022/10/14 07:54:45;;;;;;;3.87;3.43;;;13.10;99.90;;;;;;5029969;28;20512;-68
2022/10/14 07:57:12;;;;;;;4.73;4.20;;;13.00;99.90;;;;;;5029345;28;20860;-68
2022/10/14 07:59:40;;;;;;;6.83;4.17;;;13.00;99.90;;;;;;5029491;28;20465;-68
2022/10/14 08:02:07;;;;;;;4.53;3.50;;;13.10;99.90;;;;;;5029330;28;20461;-68
2022/10/14 08:04:34;;;;;;;3.50;3.20;;;13.10;99.90;;;;;;5029522;28;20861;-68
2022/10/14 08:07:02;;;;;;;4.93;3.77;;;13.10;99.90;;;;;;5029277;28;20252;-68
2022/10/14 08:09:29;;;;;;;4.03;3.27;;;13.20;99.90;;;;;;5030762;28;20978;-68
2022/10/14 08:11:56;;;;;;;4.07;3.33;;;13.30;99.90;;;;;;5030025;28;20473;-66
2022/10/14 08:14:23;;;;;;;4.13;3.67;;;13.20;99.90;;;;;;5030684;28;20480;-69
2022/10/14 08:16:51;;;;;;;4.30;3.23;;;13.30;99.90;;;;;;5029986;28;20961;-69
2022/10/14 08:19:17;;;;;;;4.30;3.90;;;13.30;99.90;;;;;;5030871;28;20464;-69
2022/10/14 08:21:44;;;;;;;4.13;3.20;;;13.40;99.90;;;;;;5030569;28;20472;-67
2022/10/14 08:24:11;;;;;;;3.73;3.37;;;13.40;99.90;;;;;;5030802;28;20489;-68
2022/10/14 08:26:40;;;;;;;3.60;3.30;;;13.50;99.90;;;;;;5030753;28;20461;-67
2022/10/14 08:29:10;;;;;;;8.53;3.30;;;13.60;99.90;;;;;;5030553;28;20476;-68
2022/10/14 08:31:37;;;;;;;4.03;3.50;;;13.60;99.90;;;;;;5030442;28;20842;-68
2022/10/14 08:34:05;;;;;;;3.60;3.30;;;13.70;99.90;;;;;;5030542;28;20495;-68
2022/10/14 08:36:31;;;;;;;5.20;3.50;;;13.70;99.90;;;;;;5031225;28;20472;-68
2022/10/14 08:38:59;;;;;;;4.17;3.20;;;13.70;99.90;;;;;;5030382;28;20507;-68
2022/10/14 08:41:37;;;;;;;3.87;3.47;;;13.70;99.90;;;;;;5030531;28;20861;-68
2022/10/14 08:44:14;;;;;;;3.57;3.20;;;13.70;99.90;;;;;;5030473;28;20503;-68
2022/10/14 08:46:44;;;;;;;4.60;3.03;;;13.80;99.90;;;;;;5030599;28;20467;-67
2022/10/14 08:49:21;;;;;;;3.93;3.03;;;13.80;99.90;;;;;;5030704;28;20873;-67
2022/10/14 08:51:53;;;;;;;5.43;3.30;;;13.80;99.90;;;;;;5030033;28;20464;-67
2022/10/14 08:54:27;;;;;;;3.93;2.70;;;13.80;99.90;;;;;;5030732;28;20859;-67
2022/10/14 08:56:55;;;;;;;3.50;3.17;;;13.80;99.90;;;;;;5030520;28;20467;-67
2022/10/14 08:59:23;;;;;;;3.80;3.17;;;13.80;99.90;;;;;;5030443;28;20499;-67
2022/10/14 09:01:53;;;;;;;3.83;2.70;;;13.90;99.90;;;;;;5029864;28;20488;-67
2022/10/14 09:04:21;;;;;;;3.50;3.20;;;13.90;99.90;;;;;;5030558;28;20480;-67
2022/10/14 09:06:50;;;;;;;3.63;3.30;;;13.90;99.90;;;;;;5030387;28;20484;-68
2022/10/14 09:09:23;;;;;;;4.67;3.13;;;13.90;99.90;;;;;;5030531;28;20452;-68
2022/10/14 09:11:53;;;;;;;3.30;3.00;;;14.00;99.90;;;;;;5030056;28;20461;-67
2022/10/14 09:14:24;;;;;;;3.47;3.17;;;14.00;99.90;;;;;;5030556;28;20860;-68
2022/10/14 09:16:55;;;;;;;3.53;2.73;;;13.90;99.90;;;;;;5030315;28;20465;-68
2022/10/14 09:19:30;;;;;;;5.63;3.20;;;14.00;99.90;;;;;;5030604;28;20516;-67
2022/10/14 09:21:59;;;;;;;3.53;3.23;;;14.00;99.90;;;;;;5029668;28;20465;-67
2022/10/14 09:24:28;;;;;;;3.77;3.40;;;14.10;99.90;;;;;;5030199;28;20481;-67
2022/10/14 09:26:58;;;;;;;3.00;2.80;;;14.10;99.90;;;;;;5029981;28;20471;-67
2022/10/14 09:29:27;;;;;;;3.47;3.10;;;14.20;99.90;;;;;;5033542;28;20832;-67
2022/10/14 09:31:57;;;;;;;4.00;3.10;;;14.20;99.90;;;;;;5032936;28;20500;-67
2022/10/14 09:34:31;;;;;;;3.50;3.20;;;14.40;99.90;;;;;;5033775;28;20481;-67
2022/10/14 09:37:05;;;;;;;3.60;3.27;;;14.50;99.90;;;;;;5033386;28;20465;-67
2022/10/14 09:39:36;;;;;;;3.47;3.17;;;14.60;99.90;;;;;;5033470;28;20495;-67
2022/10/14 09:42:03;;;;;;;3.30;3.00;;;14.70;99.90;;;;;;5032786;28;20461;-67
2022/10/14 09:44:30;;;;;;;3.53;3.20;;;14.70;99.90;;;;;;5033359;28;20499;-67
2022/10/14 09:46:59;;;;;;;2.90;2.40;;;14.80;99.90;;;;;;5033233;28;20468;-67
2022/10/14 09:49:34;;;;;;;4.03;3.03;;;14.80;99.90;;;;;;5033332;28;20979;-67
2022/10/14 09:52:02;;;;;;;3.93;3.10;;;14.90;99.90;;;;;;5032552;28;20816;-67
2022/10/14 09:54:31;;;;;;;2.63;2.33;;;14.80;99.90;;;;;;5033504;28;20495;-67
2022/10/14 09:57:02;;;;;;;3.90;3.50;;;14.80;99.90;;;;;;5032984;28;20464;-67
2022/10/14 09:59:29;;;;;;;3.80;3.20;;;14.90;99.90;;;;;;5033125;28;20485;-67
2022/10/14 10:01:58;;;;;;;2.80;2.50;;;14.90;99.90;;;;;;5032408;28;20504;-67
2022/10/14 10:04:32;;;;;;;2.80;2.57;;;15.10;99.90;;;;;;5033669;28;20480;-67
2022/10/14 10:07:04;;;;;;;3.00;2.50;;;15.20;99.90;;;;;;5033457;28;20491;-67
2022/10/14 10:09:31;;;;;;;3.63;2.90;;;15.40;99.90;;;;;;5032984;28;20468;-67
2022/10/14 10:11:58;;;;;;;2.60;2.33;;;15.50;99.90;;;;;;5032180;28;20472;-67
2022/10/14 10:14:26;;;;;;;5.10;2.80;;;15.60;99.90;;;;;;5032711;28;20484;-67
2022/10/14 10:17:16;;;;;;;4.20;2.77;;;15.70;99.90;;;;;;5026745;28;20487;-67
2022/10/14 10:19:45;;;;;;;3.10;2.80;;;15.70;99.90;;;;;;5031396;28;21033;-66
2022/10/14 10:22:25;;;;;;;5.40;2.70;;;15.60;99.90;;;;;;5032151;28;20461;-67
2022/10/14 10:25:11;;;;;;;5.20;2.37;;;15.60;99.90;;;;;;5031938;28;20511;-69
2022/10/14 10:27:40;;;;;;;3.70;2.57;;;15.60;99.90;;;;;;5032417;28;20523;-68
2022/10/14 10:30:20;;;;;;;2.77;2.47;;;15.60;99.90;;;;;;5031522;28;20473;-67
2022/10/14 10:32:55;;;;;;;2.90;2.60;;;15.60;99.90;;;;;;5031553;28;20968;-66
2022/10/14 10:35:26;;;;;;;2.80;2.60;;;15.70;99.90;;;;;;5032218;28;20491;-67
2022/10/14 10:38:06;;;;;;;2.60;2.40;;;15.80;99.90;;;;;;5030136;28;20464;-66
2022/10/14 10:40:41;;;;;;;2.80;2.50;;;15.80;99.90;;;;;;5031369;28;20461;-67
2022/10/14 10:43:41;;;;;;;2.90;2.57;;;15.90;99.90;;;;;;5029288;28;20460;-67
2022/10/14 10:46:35;;;;;;;2.90;2.57;;;15.80;99.90;;;;;;5031806;28;20461;-67
2022/10/14 10:49:11;;;;;;;3.73;2.27;;;15.90;99.90;;;;;;5031668;28;20465;-67
2022/10/14 10:51:45;;;;;;;3.37;2.70;;;15.80;99.90;;;;;;5031348;28;20460;-67
2022/10/14 10:54:25;;;;;;;2.53;2.33;;;15.70;99.90;;;;;;5031598;28;20563;-67
2022/10/14 10:56:56;;;;;;;3.23;2.70;;;15.70;99.90;;;;;;5031045;28;20483;-68
2022/10/14 10:59:48;;;;;;;3.10;2.70;;;15.70;99.90;;;;;;5031576;28;20580;-67
2022/10/14 11:02:54;;;;;;;3.30;2.47;;;15.80;99.90;;;;;;5031222;28;20469;-67
2022/10/14 11:05:50;;;;;;;3.30;2.77;;;15.70;99.90;;;;;;5031357;28;20488;-67
2022/10/14 11:14:53;;;;;;;3.50;2.50;;;15.70;99.90;;;;;;5031626;28;20464;-69
2022/10/14 11:17:28;;;;;;;2.83;2.60;;;15.60;99.90;;;;;;5024953;28;20472;-66
2022/10/14 11:20:01;;;;;;;3.90;3.00;;;15.60;99.90;;;;;;5030581;28;20489;-69
2022/10/14 11:22:45;;;;;;;3.33;2.70;;;15.50;99.90;;;;;;5030828;28;20498;-67
2022/10/14 11:25:21;;;;;;;3.13;2.60;;;15.40;99.90;;;;;;5031296;28;20481;-67
2022/10/14 11:27:57;;;;;;;3.23;2.93;;;15.40;99.90;;;;;;5030903;28;20464;-67
2022/10/14 11:30:32;;;;;;;2.23;2.03;;;15.30;99.90;;;;;;5030714;28;20472;-67
2022/10/14 11:33:16;;;;;;;3.90;2.90;;;15.30;99.90;;;;;;5029923;28;20460;-67
2022/10/14 11:35:55;;;;;;;3.33;2.73;;;15.30;99.90;;;;;;5016308;28;20480;-67
2022/10/14 11:38:39;;;;;;;5.10;2.97;;;15.40;99.90;;;;;;5031005;28;20503;-67
2022/10/14 11:41:19;;;;;;;2.17;1.97;;;15.50;99.90;;;;;;5030733;28;20467;-67
2022/10/14 11:43:54;;;;;;;3.80;2.70;;;15.50;99.90;;;;;;5029999;28;20471;-67
2022/10/14 11:46:25;;;;;;;2.90;2.40;;;15.50;99.90;;;;;;5030943;28;20461;-68
2022/10/14 11:48:56;;;;;;;2.90;2.60;;;15.60;99.90;;;;;;5030934;28;20992;-67
2022/10/14 11:51:27;;;;;;;4.07;2.40;;;15.70;99.90;;;;;;5029811;28;20469;-67
2022/10/14 11:53:59;;;;;;;3.53;2.67;;;15.70;99.90;;;;;;5030403;28;20472;-68
2022/10/14 11:56:35;;;;;;;3.00;2.67;;;15.70;99.90;;;;;;5030467;28;20464;-67
2022/10/14 11:59:27;;;;;;;2.60;2.40;;;15.80;99.90;;;;;;5029816;28;20555;-67
2022/10/14 12:02:12;;;;;;;3.73;2.80;;;15.80;99.90;;;;;;5030000;28;20488;-68
2022/10/14 12:04:44;;;;;;;4.10;3.10;;;15.80;99.90;;;;;;5030463;28;20477;-67
2022/10/14 12:07:17;;;;;;;4.07;3.20;;;15.90;99.90;;;;;;5030066;28;20469;-67
2022/10/14 12:09:51;;;;;;;2.70;2.30;;;15.80;99.90;;;;;;5030579;28;20457;-66
2022/10/14 12:12:21;;;;;;;3.80;2.70;;;15.90;99.90;;;;;;5029749;28;20465;-66
2022/10/14 12:14:54;;;;;;;2.57;2.30;;;15.90;99.90;;;;;;5030286;28;20480;-67
2022/10/14 12:17:27;;;;;;;3.13;2.20;;;16.00;99.90;;;;;;5030481;28;20467;-67
2022/10/14 12:19:55;;;;;;;3.90;2.40;;;16.00;99.90;;;;;;5029512;28;20492;-67
2022/10/14 12:22:24;;;;;;;2.20;2.00;;;16.00;99.90;;;;;;5029945;28;20488;-67
2022/10/14 12:24:53;;;;;;;2.07;1.87;;;16.00;99.90;;;;;;5030071;28;20492;-67
2022/10/14 12:27:22;;;;;;;2.10;1.90;;;16.00;99.90;;;;;;5029936;28;20522;-68
2022/10/14 12:29:56;;;;;;;2.20;2.00;;;16.00;99.90;;;;;;5029781;28;20493;-67
2022/10/14 12:32:24;;;;;;;2.40;2.20;;;15.90;99.90;;;;;;5029488;28;20523;-67
2022/10/14 12:34:53;;;;;;;2.20;1.90;;;15.90;99.90;;;;;;5029578;28;20476;-67
2022/10/14 12:37:51;;;;;;;1.80;1.70;;;16.00;99.90;;;;;;5030486;28;20465;-68
2022/10/14 12:40:39;;;;;;;1.87;1.73;;;15.90;99.90;;;;;;5046601;28;21007;-68
2022/10/14 12:43:28;;;;;;;1.77;1.67;;;15.90;99.90;;;;;;5031539;28;20461;-67
2022/10/14 12:46:15;;;;;;;1.73;1.63;;;15.90;99.90;;;;;;5029712;28;20538;-67
2022/10/14 12:48:49;;;;;;;2.47;2.27;;;15.90;99.90;;;;;;5029997;28;20455;-67
2022/10/14 12:51:19;;;;;;;1.77;1.67;;;16.00;99.90;;;;;;5029483;28;20460;-67
2022/10/14 12:53:56;;;;;;;3.00;2.20;;;16.00;99.90;;;;;;5030109;28;20468;-67
2022/10/14 12:56:32;;;;;;;2.07;1.73;;;15.90;99.90;;;;;;5029749;28;20461;-67
2022/10/14 12:59:01;;;;;;;1.70;1.60;;;16.00;99.90;;;;;;5029702;28;20489;-67
2022/10/14 13:01:30;;;;;;;1.80;1.70;;;16.00;99.90;;;;;;5030510;28;20460;-68
2022/10/14 13:04:00;;;;;;;2.53;1.93;;;16.00;99.90;;;;;;5033399;28;20488;-67
2022/10/14 13:06:36;;;;;;;3.33;1.73;;;16.00;99.90;;;;;;5034217;28;20465;-68
2022/10/14 13:09:34;;;;;;;3.00;1.70;;;16.00;99.90;;;;;;5033638;28;20479;-68
2022/10/14 13:12:43;;;;;;;1.70;1.60;;;16.00;99.90;;;;;;5033413;28;20455;-68